sensor_id;sensor_type;location;lat;lon;timestamp;pressure;altitude;pressure_sealevel;temperature;humidity
4392;BME280;2210;51.938;8.488;2023-05-17T00:02:53;101140.75;;;9.11;97.01
4392;BME280;2210;51.938;8.488;2023-05-17T00:07:08;101133.56;;;9.10;96.56
4392;BME280;2210;51.938;8.488;2023-05-17T00:11:15;101134.19;;;9.06;97.91
4392;BME280;2210;51.938;8.488;2023-05-17T00:15:15;101135.66;;;8.95;97.52
4392;BME280;2210;51.938;8.488;2023-05-17T00:19:15;101141.38;;;8.93;98.39
4392;BME280;2210;51.938;8.488;2023-05-17T00:23:16;101132.50;;;8.91;99.19
4392;BME280;2210;51.938;8.488;2023-05-17T00:27:25;101142.63;;;8.84;99.09
4392;BME280;2210;51.938;8.488;2023-05-17T00:31:25;101137.34;;;8.69;100.00
4392;BME280;2210;51.938;8.488;2023-05-17T00:35:26;101138.22;;;8.70;100.00
4392;BME280;2210;51.938;8.488;2023-05-17T00:39:26;101140.94;;;8.56;100.00
4392;BME280;2210;51.938;8.488;2023-05-17T00:43:32;101130.97;;;8.49;100.00
4392;BME280;2210;51.938;8.488;2023-05-17T00:47:42;101142.63;;;8.51;100.00
4392;BME280;2210;51.938;8.488;2023-05-17T00:51:43;101128.47;;;8.60;100.00
4392;BME280;2210;51.938;8.488;2023-05-17T00:55:49;101124.88;;;8.53;100.00
4392;BME280;2210;51.938;8.488;2023-05-17T00:59:54;101139.88;;;8.57;100.00
4392;BME280;2210;51.938;8.488;2023-05-17T01:04:01;101138.13;;;8.43;100.00
4392;BME280;2210;51.938;8.488;2023-05-17T01:08:04;101145.91;;;8.33;100.00
4392;BME280;2210;51.938;8.488;2023-05-17T01:16:43;101146.91;;;8.12;100.00
4392;BME280;2210;51.938;8.488;2023-05-17T01:20:49;101153.22;;;8.05;100.00
4392;BME280;2210;51.938;8.488;2023-05-17T01:25:10;101163.16;;;8.06;100.00
4392;BME280;2210;51.938;8.488;2023-05-17T01:29:15;101161.19;;;7.87;100.00
4392;BME280;2210;51.938;8.488;2023-05-17T01:33:19;101160.69;;;7.76;100.00
4392;BME280;2210;51.938;8.488;2023-05-17T01:37:22;101161.91;;;7.67;100.00
4392;BME280;2210;51.938;8.488;2023-05-17T01:41:26;101165.69;;;7.66;100.00
4392;BME280;2210;51.938;8.488;2023-05-17T01:45:31;101160.63;;;7.63;100.00
4392;BME280;2210;51.938;8.488;2023-05-17T01:49:45;101176.69;;;7.66;100.00
4392;BME280;2210;51.938;8.488;2023-05-17T01:54:00;101176.84;;;7.58;100.00
4392;BME280;2210;51.938;8.488;2023-05-17T01:58:02;101175.09;;;7.43;100.00
4392;BME280;2210;51.938;8.488;2023-05-17T02:02:05;101179.28;;;7.39;100.00
4392;BME280;2210;51.938;8.488;2023-05-17T02:06:17;101195.97;;;7.45;100.00
4392;BME280;2210;51.938;8.488;2023-05-17T02:10:20;101182.59;;;7.35;100.00
4392;BME280;2210;51.938;8.488;2023-05-17T02:14:20;101187.31;;;7.41;100.00
4392;BME280;2210;51.938;8.488;2023-05-17T02:18:21;101195.47;;;7.34;100.00
4392;BME280;2210;51.938;8.488;2023-05-17T02:22:24;101196.56;;;7.40;100.00
4392;BME280;2210;51.938;8.488;2023-05-17T02:26:24;101193.22;;;7.45;100.00
4392;BME280;2210;51.938;8.488;2023-05-17T02:30:25;101198.53;;;7.46;100.00
4392;BME280;2210;51.938;8.488;2023-05-17T02:34:25;101210.44;;;7.32;100.00
4392;BME280;2210;51.938;8.488;2023-05-17T02:38:25;101213.13;;;7.25;100.00
4392;BME280;2210;51.938;8.488;2023-05-17T02:42:26;101206.34;;;7.21;100.00
4392;BME280;2210;51.938;8.488;2023-05-17T02:46:26;101213.13;;;7.25;100.00
4392;BME280;2210;51.938;8.488;2023-05-17T02:50:29;101212.75;;;7.06;100.00
4392;BME280;2210;51.938;8.488;2023-05-17T02:54:29;101213.00;;;7.12;100.00
4392;BME280;2210;51.938;8.488;2023-05-17T02:58:30;101211.72;;;7.07;100.00
4392;BME280;2210;51.938;8.488;2023-05-17T03:02:36;101219.41;;;6.97;100.00
4392;BME280;2210;51.938;8.488;2023-05-17T03:06:36;101213.28;;;6.95;100.00
4392;BME280;2210;51.938;8.488;2023-05-17T03:10:37;101221.13;;;6.98;100.00
4392;BME280;2210;51.938;8.488;2023-05-17T03:14:37;101225.34;;;7.01;100.00
4392;BME280;2210;51.938;8.488;2023-05-17T03:18:50;101227.06;;;7.02;100.00
4392;BME280;2210;51.938;8.488;2023-05-17T03:22:56;101231.25;;;6.98;100.00
4392;BME280;2210;51.938;8.488;2023-05-17T03:26:56;101234.75;;;6.91;100.00
4392;BME280;2210;51.938;8.488;2023-05-17T03:30:59;101238.66;;;7.04;100.00
4392;BME280;2210;51.938;8.488;2023-05-17T03:35:03;101237.13;;;6.95;100.00
4392;BME280;2210;51.938;8.488;2023-05-17T03:39:13;101243.19;;;6.90;100.00
4392;BME280;2210;51.938;8.488;2023-05-17T03:43:13;101249.97;;;6.94;100.00
4392;BME280;2210;51.938;8.488;2023-05-17T03:47:16;101244.88;;;6.91;100.00
4392;BME280;2210;51.938;8.488;2023-05-17T03:51:17;101257.94;;;6.89;100.00
4392;BME280;2210;51.938;8.488;2023-05-17T03:55:26;101268.53;;;6.92;100.00
4392;BME280;2210;51.938;8.488;2023-05-17T03:59:26;101264.47;;;6.88;100.00
4392;BME280;2210;51.938;8.488;2023-05-17T04:03:36;101265.50;;;6.87;100.00
4392;BME280;2210;51.938;8.488;2023-05-17T04:07:36;101267.13;;;6.81;100.00
4392;BME280;2210;51.938;8.488;2023-05-17T04:11:36;101272.44;;;6.83;100.00
4392;BME280;2210;51.938;8.488;2023-05-17T04:15:37;101279.78;;;6.82;100.00
4392;BME280;2210;51.938;8.488;2023-05-17T04:19:37;101279.22;;;6.87;100.00
4392;BME280;2210;51.938;8.488;2023-05-17T04:23:40;101273.28;;;7.05;100.00
4392;BME280;2210;51.938;8.488;2023-05-17T04:27:44;101288.34;;;7.16;100.00
4392;BME280;2210;51.938;8.488;2023-05-17T04:31:47;101283.00;;;7.29;100.00
4392;BME280;2210;51.938;8.488;2023-05-17T04:35:49;101283.38;;;7.48;100.00
4392;BME280;2210;51.938;8.488;2023-05-17T04:39:53;101298.66;;;7.57;100.00
4392;BME280;2210;51.938;8.488;2023-05-17T04:43:53;101305.53;;;7.74;100.00
4392;BME280;2210;51.938;8.488;2023-05-17T04:47:53;101311.78;;;7.90;100.00
4392;BME280;2210;51.938;8.488;2023-05-17T04:51:54;101318.00;;;8.05;100.00
4392;BME280;2210;51.938;8.488;2023-05-17T04:55:58;101314.31;;;8.20;100.00
4392;BME280;2210;51.938;8.488;2023-05-17T04:59:58;101324.53;;;8.39;100.00
4392;BME280;2210;51.938;8.488;2023-05-17T05:04:02;101332.56;;;8.41;100.00
4392;BME280;2210;51.938;8.488;2023-05-17T05:08:05;101334.28;;;8.42;100.00
4392;BME280;2210;51.938;8.488;2023-05-17T05:12:06;101341.41;;;8.30;100.00
4392;BME280;2210;51.938;8.488;2023-05-17T05:16:07;101342.66;;;8.27;100.00
4392;BME280;2210;51.938;8.488;2023-05-17T05:20:07;101364.59;;;8.20;100.00
4392;BME280;2210;51.938;8.488;2023-05-17T05:24:12;101357.94;;;8.36;100.00
4392;BME280;2210;51.938;8.488;2023-05-17T05:28:15;101363.88;;;8.40;100.00
4392;BME280;2210;51.938;8.488;2023-05-17T05:32:21;101368.81;;;8.51;100.00
4392;BME280;2210;51.938;8.488;2023-05-17T05:36:21;101369.91;;;8.57;100.00
4392;BME280;2210;51.938;8.488;2023-05-17T05:40:25;101372.03;;;8.55;100.00
4392;BME280;2210;51.938;8.488;2023-05-17T05:44:25;101380.94;;;8.64;100.00
4392;BME280;2210;51.938;8.488;2023-05-17T05:48:25;101381.47;;;8.81;100.00
4392;BME280;2210;51.938;8.488;2023-05-17T05:52:28;101382.78;;;8.91;100.00
4392;BME280;2210;51.938;8.488;2023-05-17T05:56:31;101393.59;;;9.00;100.00
4392;BME280;2210;51.938;8.488;2023-05-17T06:00:32;101391.06;;;8.98;100.00
4392;BME280;2210;51.938;8.488;2023-05-17T06:04:35;101394.84;;;8.97;100.00
4392;BME280;2210;51.938;8.488;2023-05-17T06:08:37;101404.38;;;9.01;100.00
4392;BME280;2210;51.938;8.488;2023-05-17T06:12:37;101408.66;;;9.10;100.00
4392;BME280;2210;51.938;8.488;2023-05-17T06:16:38;101419.34;;;8.85;100.00
4392;BME280;2210;51.938;8.488;2023-05-17T06:20:38;101415.97;;;8.83;100.00
4392;BME280;2210;51.938;8.488;2023-05-17T06:24:38;101422.19;;;9.05;100.00
4392;BME280;2210;51.938;8.488;2023-05-17T06:28:38;101425.03;;;9.32;100.00
4392;BME280;2210;51.938;8.488;2023-05-17T06:32:39;101430.78;;;9.51;100.00
4392;BME280;2210;51.938;8.488;2023-05-17T06:36:45;101440.56;;;9.67;100.00
4392;BME280;2210;51.938;8.488;2023-05-17T06:40:48;101441.41;;;9.54;100.00
4392;BME280;2210;51.938;8.488;2023-05-17T06:44:53;101438.84;;;9.45;100.00
4392;BME280;2210;51.938;8.488;2023-05-17T06:48:53;101444.75;;;9.42;100.00
4392;BME280;2210;51.938;8.488;2023-05-17T06:52:53;101448.63;;;9.75;100.00
4392;BME280;2210;51.938;8.488;2023-05-17T06:57:06;101445.19;;;9.53;100.00
4392;BME280;2210;51.938;8.488;2023-05-17T07:01:06;101449.03;;;9.58;100.00
4392;BME280;2210;51.938;8.488;2023-05-17T07:05:07;101451.97;;;9.50;93.75
4392;BME280;2210;51.938;8.488;2023-05-17T07:09:07;101450.78;;;9.93;89.51
4392;BME280;2210;51.938;8.488;2023-05-17T07:13:07;101463.50;;;10.01;86.58
4392;BME280;2210;51.938;8.488;2023-05-17T07:17:14;101458.25;;;10.39;87.97
4392;BME280;2210;51.938;8.488;2023-05-17T07:21:14;101460.34;;;10.37;84.90
4392;BME280;2210;51.938;8.488;2023-05-17T07:25:18;101455.69;;;10.31;82.40
4392;BME280;2210;51.938;8.488;2023-05-17T07:29:25;101474.31;;;10.16;82.36
4392;BME280;2210;51.938;8.488;2023-05-17T07:33:26;101471.13;;;9.92;79.82
4392;BME280;2210;51.938;8.488;2023-05-17T07:37:27;101480.44;;;9.91;78.36
4392;BME280;2210;51.938;8.488;2023-05-17T07:41:27;101477.28;;;10.21;78.48
4392;BME280;2210;51.938;8.488;2023-05-17T07:45:27;101480.47;;;10.04;74.14
4392;BME280;2210;51.938;8.488;2023-05-17T07:49:29;101493.41;;;9.97;79.94
4392;BME280;2210;51.938;8.488;2023-05-17T07:53:29;101495.06;;;9.98;78.89
4392;BME280;2210;51.938;8.488;2023-05-17T07:57:33;101507.81;;;10.19;81.82
4392;BME280;2210;51.938;8.488;2023-05-17T08:01:33;101500.78;;;10.90;74.57
4392;BME280;2210;51.938;8.488;2023-05-17T08:14:44;101523.13;;;10.35;68.28
4392;BME280;2210;51.938;8.488;2023-05-17T08:18:47;101518.59;;;9.94;64.05
4392;BME280;2210;51.938;8.488;2023-05-17T08:22:48;101517.13;;;10.05;64.74
4392;BME280;2210;51.938;8.488;2023-05-17T08:26:48;101526.53;;;10.51;66.23
4392;BME280;2210;51.938;8.488;2023-05-17T08:30:48;101533.31;;;10.68;63.33
4392;BME280;2210;51.938;8.488;2023-05-17T08:34:49;101521.81;;;11.57;60.75
4392;BME280;2210;51.938;8.488;2023-05-17T08:38:55;101523.47;;;11.64;61.66
4392;BME280;2210;51.938;8.488;2023-05-17T08:43:06;101519.81;;;11.25;61.08
4392;BME280;2210;51.938;8.488;2023-05-17T08:47:08;101538.28;;;11.25;63.84
4392;BME280;2210;51.938;8.488;2023-05-17T08:51:11;101538.31;;;11.11;63.66
4392;BME280;2210;51.938;8.488;2023-05-17T08:55:12;101538.13;;;11.06;62.81
4392;BME280;2210;51.938;8.488;2023-05-17T08:59:18;101539.63;;;10.89;62.51
4392;BME280;2210;51.938;8.488;2023-05-17T09:03:20;101543.06;;;10.84;62.04
4392;BME280;2210;51.938;8.488;2023-05-17T09:07:21;101545.59;;;10.86;63.93
4392;BME280;2210;51.938;8.488;2023-05-17T09:11:27;101536.06;;;10.82;62.42
4392;BME280;2210;51.938;8.488;2023-05-17T09:15:33;101549.16;;;11.06;64.69
4392;BME280;2210;51.938;8.488;2023-05-17T09:19:42;101547.03;;;11.22;63.14
4392;BME280;2210;51.938;8.488;2023-05-17T09:23:42;101532.25;;;11.55;58.24
4392;BME280;2210;51.938;8.488;2023-05-17T09:27:54;101533.63;;;11.77;56.70
4392;BME280;2210;51.938;8.488;2023-05-17T09:32:12;101534.34;;;12.05;56.47
4392;BME280;2210;51.938;8.488;2023-05-17T09:36:37;101528.22;;;11.89;60.39
4392;BME280;2210;51.938;8.488;2023-05-17T09:40:44;101532.34;;;11.73;57.10
4392;BME280;2210;51.938;8.488;2023-05-17T09:45:00;101543.47;;;11.60;58.40
4392;BME280;2210;51.938;8.488;2023-05-17T09:49:01;101535.75;;;11.75;60.17
4392;BME280;2210;51.938;8.488;2023-05-17T09:53:02;101532.47;;;11.53;56.20
4392;BME280;2210;51.938;8.488;2023-05-17T09:57:03;101524.50;;;11.70;58.39
4392;BME280;2210;51.938;8.488;2023-05-17T10:01:06;101530.56;;;11.92;55.23
4392;BME280;2210;51.938;8.488;2023-05-17T10:05:10;101527.34;;;12.27;56.76
4392;BME280;2210;51.938;8.488;2023-05-17T10:09:13;101520.94;;;12.02;54.75
4392;BME280;2210;51.938;8.488;2023-05-17T10:13:14;101534.91;;;11.75;57.69
4392;BME280;2210;51.938;8.488;2023-05-17T10:17:18;101535.28;;;11.78;56.27
4392;BME280;2210;51.938;8.488;2023-05-17T10:21:21;101536.38;;;11.77;53.90
4392;BME280;2210;51.938;8.488;2023-05-17T10:25:22;101533.41;;;12.68;57.30
4392;BME280;2210;51.938;8.488;2023-05-17T10:29:23;101534.31;;;13.06;54.69
4392;BME280;2210;51.938;8.488;2023-05-17T10:33:31;101530.50;;;12.63;54.71
4392;BME280;2210;51.938;8.488;2023-05-17T10:37:38;101524.31;;;12.36;55.99
4392;BME280;2210;51.938;8.488;2023-05-17T10:41:41;101522.75;;;12.21;54.36
4392;BME280;2210;51.938;8.488;2023-05-17T10:45:42;101520.72;;;12.35;52.87
4392;BME280;2210;51.938;8.488;2023-05-17T10:49:49;101515.91;;;12.74;52.41
4392;BME280;2210;51.938;8.488;2023-05-17T10:54:07;101520.09;;;12.33;53.24
4392;BME280;2210;51.938;8.488;2023-05-17T10:58:16;101524.25;;;12.42;57.37
4392;BME280;2210;51.938;8.488;2023-05-17T11:02:22;101523.06;;;12.31;54.98
4392;BME280;2210;51.938;8.488;2023-05-17T11:06:22;101523.19;;;12.43;51.52
4392;BME280;2210;51.938;8.488;2023-05-17T11:10:24;101517.91;;;12.42;53.46
4392;BME280;2210;51.938;8.488;2023-05-17T11:19:06;101519.66;;;12.04;52.92
4392;BME280;2210;51.938;8.488;2023-05-17T11:23:15;101506.97;;;12.72;54.90
4392;BME280;2210;51.938;8.488;2023-05-17T11:27:19;101516.38;;;12.71;52.25
4392;BME280;2210;51.938;8.488;2023-05-17T11:31:28;101518.19;;;12.59;50.42
4392;BME280;2210;51.938;8.488;2023-05-17T11:35:34;101518.91;;;12.73;50.69
4392;BME280;2210;51.938;8.488;2023-05-17T11:39:36;101515.19;;;13.60;53.40
4392;BME280;2210;51.938;8.488;2023-05-17T11:43:44;101511.09;;;13.07;51.31
4392;BME280;2210;51.938;8.488;2023-05-17T11:47:52;101528.69;;;12.75;53.77
4392;BME280;2210;51.938;8.488;2023-05-17T11:51:52;101515.09;;;12.92;52.15
4392;BME280;2210;51.938;8.488;2023-05-17T11:56:06;101516.19;;;13.10;52.46
4392;BME280;2210;51.938;8.488;2023-05-17T12:00:13;101519.44;;;12.81;51.96
4392;BME280;2210;51.938;8.488;2023-05-17T12:04:25;101526.50;;;12.77;53.08
4392;BME280;2210;51.938;8.488;2023-05-17T12:08:30;101518.84;;;12.98;54.31
4392;BME280;2210;51.938;8.488;2023-05-17T12:12:44;101517.66;;;13.12;50.64
4392;BME280;2210;51.938;8.488;2023-05-17T12:16:48;101507.81;;;13.35;50.19
4392;BME280;2210;51.938;8.488;2023-05-17T12:20:57;101517.19;;;13.15;51.33
4392;BME280;2210;51.938;8.488;2023-05-17T12:24:58;101516.47;;;13.02;50.06
4392;BME280;2210;51.938;8.488;2023-05-17T12:29:01;101516.78;;;13.30;49.21
4392;BME280;2210;51.938;8.488;2023-05-17T12:33:07;101514.13;;;13.42;50.04
4392;BME280;2210;51.938;8.488;2023-05-17T12:37:08;101505.03;;;13.35;46.34
4392;BME280;2210;51.938;8.488;2023-05-17T12:41:15;101514.53;;;13.76;51.27
4392;BME280;2210;51.938;8.488;2023-05-17T12:45:16;101498.78;;;13.89;46.87
4392;BME280;2210;51.938;8.488;2023-05-17T12:49:16;101514.66;;;14.12;49.71
4392;BME280;2210;51.938;8.488;2023-05-17T12:53:33;101506.78;;;14.39;50.97
4392;BME280;2210;51.938;8.488;2023-05-17T12:57:37;101508.00;;;14.01;44.79
4392;BME280;2210;51.938;8.488;2023-05-17T13:02:10;101506.63;;;14.34;45.15
4392;BME280;2210;51.938;8.488;2023-05-17T13:06:12;101507.38;;;14.41;45.79
4392;BME280;2210;51.938;8.488;2023-05-17T13:10:30;101519.16;;;14.25;47.63
4392;BME280;2210;51.938;8.488;2023-05-17T13:14:44;101520.56;;;14.15;51.01
4392;BME280;2210;51.938;8.488;2023-05-17T13:18:48;101522.56;;;13.96;50.74
4392;BME280;2210;51.938;8.488;2023-05-17T13:22:58;101520.88;;;13.65;50.98
4392;BME280;2210;51.938;8.488;2023-05-17T13:27:01;101526.56;;;13.70;50.56
4392;BME280;2210;51.938;8.488;2023-05-17T13:31:02;101528.63;;;14.05;48.36
4392;BME280;2210;51.938;8.488;2023-05-17T13:35:02;101516.88;;;13.91;49.98
4392;BME280;2210;51.938;8.488;2023-05-17T13:39:03;101522.75;;;13.53;49.89
4392;BME280;2210;51.938;8.488;2023-05-17T13:43:06;101519.94;;;13.71;52.23
4392;BME280;2210;51.938;8.488;2023-05-17T13:47:08;101521.75;;;13.96;50.25
4392;BME280;2210;51.938;8.488;2023-05-17T13:51:08;101520.78;;;13.72;49.86
4392;BME280;2210;51.938;8.488;2023-05-17T13:55:08;101526.19;;;13.48;51.39
4392;BME280;2210;51.938;8.488;2023-05-17T13:59:12;101516.56;;;13.32;51.45
4392;BME280;2210;51.938;8.488;2023-05-17T14:03:12;101517.97;;;13.41;50.96
4392;BME280;2210;51.938;8.488;2023-05-17T14:07:13;101516.56;;;13.13;52.22
4392;BME280;2210;51.938;8.488;2023-05-17T14:11:14;101515.94;;;13.11;51.14
4392;BME280;2210;51.938;8.488;2023-05-17T14:15:14;101517.97;;;13.41;51.67
4392;BME280;2210;51.938;8.488;2023-05-17T14:19:14;101516.81;;;13.79;50.76
4392;BME280;2210;51.938;8.488;2023-05-17T14:23:15;101507.19;;;13.82;51.02
4392;BME280;2210;51.938;8.488;2023-05-17T14:27:15;101515.97;;;13.48;52.43
4392;BME280;2210;51.938;8.488;2023-05-17T14:31:15;101519.94;;;13.34;52.44
4392;BME280;2210;51.938;8.488;2023-05-17T14:35:16;101522.72;;;13.15;52.85
4392;BME280;2210;51.938;8.488;2023-05-17T14:39:16;101523.19;;;13.12;51.81
4392;BME280;2210;51.938;8.488;2023-05-17T14:43:17;101508.44;;;13.37;52.20
4392;BME280;2210;51.938;8.488;2023-05-17T14:47:19;101517.19;;;13.34;49.62
4392;BME280;2210;51.938;8.488;2023-05-17T14:51:20;101513.97;;;13.56;52.20
4392;BME280;2210;51.938;8.488;2023-05-17T14:55:21;101518.84;;;13.72;52.66
4392;BME280;2210;51.938;8.488;2023-05-17T14:59:21;101521.75;;;13.96;50.57
4392;BME280;2210;51.938;8.488;2023-05-17T15:03:21;101522.66;;;13.90;50.55
4392;BME280;2210;51.938;8.488;2023-05-17T15:07:21;101528.03;;;13.73;50.34
4392;BME280;2210;51.938;8.488;2023-05-17T15:11:22;101530.13;;;13.59;52.29
4392;BME280;2210;51.938;8.488;2023-05-17T15:15:22;101518.19;;;13.58;50.51
4392;BME280;2210;51.938;8.488;2023-05-17T15:19:22;101525.72;;;13.32;50.20
4392;BME280;2210;51.938;8.488;2023-05-17T15:23:23;101522.47;;;13.17;52.19
4392;BME280;2210;51.938;8.488;2023-05-17T15:27:23;101532.31;;;12.94;51.84
4392;BME280;2210;51.938;8.488;2023-05-17T15:31:23;101529.31;;;12.96;51.71
4392;BME280;2210;51.938;8.488;2023-05-17T15:35:24;101529.56;;;13.13;52.64
4392;BME280;2210;51.938;8.488;2023-05-17T15:39:28;101524.72;;;13.27;51.48
4392;BME280;2210;51.938;8.488;2023-05-17T15:43:29;101518.63;;;13.18;51.56
4392;BME280;2210;51.938;8.488;2023-05-17T15:47:36;101513.97;;;13.19;50.30
4392;BME280;2210;51.938;8.488;2023-05-17T15:51:40;101517.03;;;13.29;51.63
4392;BME280;2210;51.938;8.488;2023-05-17T15:55:40;101521.81;;;13.22;50.74
4392;BME280;2210;51.938;8.488;2023-05-17T15:59:43;101524.88;;;13.32;51.54
4392;BME280;2210;51.938;8.488;2023-05-17T16:03:43;101525.63;;;13.21;51.10
4392;BME280;2210;51.938;8.488;2023-05-17T16:07:45;101516.19;;;13.28;48.98
4392;BME280;2210;51.938;8.488;2023-05-17T16:11:45;101520.56;;;13.18;48.32
4392;BME280;2210;51.938;8.488;2023-05-17T16:15:46;101525.63;;;13.21;49.31
4392;BME280;2210;51.938;8.488;2023-05-17T16:19:46;101530.16;;;13.40;50.93
4392;BME280;2210;51.938;8.488;2023-05-17T16:23:46;101532.91;;;13.40;50.52
4392;BME280;2210;51.938;8.488;2023-05-17T16:27:47;101538.47;;;13.40;50.58
4392;BME280;2210;51.938;8.488;2023-05-17T16:31:47;101533.47;;;13.24;52.34
4392;BME280;2210;51.938;8.488;2023-05-17T16:35:48;101531.19;;;13.21;53.02
4392;BME280;2210;51.938;8.488;2023-05-17T16:39:49;101532.41;;;13.25;51.20
4392;BME280;2210;51.938;8.488;2023-05-17T16:43:49;101531.16;;;13.02;51.03
4392;BME280;2210;51.938;8.488;2023-05-17T16:47:49;101538.09;;;13.11;51.98
4392;BME280;2210;51.938;8.488;2023-05-17T16:51:53;101529.13;;;13.16;51.59
4392;BME280;2210;51.938;8.488;2023-05-17T16:55:53;101537.34;;;13.23;52.04
4392;BME280;2210;51.938;8.488;2023-05-17T16:59:54;101540.56;;;13.20;52.21
4392;BME280;2210;51.938;8.488;2023-05-17T17:03:57;101537.41;;;12.97;51.85
4392;BME280;2210;51.938;8.488;2023-05-17T17:07:57;101544.19;;;12.76;51.43
4392;BME280;2210;51.938;8.488;2023-05-17T17:12:04;101540.00;;;12.92;52.36
4392;BME280;2210;51.938;8.488;2023-05-17T17:16:05;101546.69;;;13.03;53.50
4392;BME280;2210;51.938;8.488;2023-05-17T17:20:06;101546.97;;;13.20;53.15
4392;BME280;2210;51.938;8.488;2023-05-17T17:24:11;101553.03;;;13.10;52.32
4392;BME280;2210;51.938;8.488;2023-05-17T17:28:11;101543.25;;;13.08;51.12
4392;BME280;2210;51.938;8.488;2023-05-17T17:32:11;101550.47;;;13.09;52.99
4392;BME280;2210;51.938;8.488;2023-05-17T17:36:12;101555.06;;;12.96;51.47
4392;BME280;2210;51.938;8.488;2023-05-17T17:40:18;101558.72;;;12.97;52.26
4392;BME280;2210;51.938;8.488;2023-05-17T17:44:22;101567.63;;;12.99;53.89
4392;BME280;2210;51.938;8.488;2023-05-17T17:48:22;101568.75;;;12.91;54.12
4392;BME280;2210;51.938;8.488;2023-05-17T17:52:33;101570.06;;;12.89;52.45
4392;BME280;2210;51.938;8.488;2023-05-17T17:56:38;101565.31;;;12.71;53.13
4392;BME280;2210;51.938;8.488;2023-05-17T18:00:38;101571.81;;;12.58;53.47
4392;BME280;2210;51.938;8.488;2023-05-17T18:04:39;101574.97;;;12.61;53.56
4392;BME280;2210;51.938;8.488;2023-05-17T18:08:39;101574.00;;;12.49;53.26
4392;BME280;2210;51.938;8.488;2023-05-17T18:12:40;101575.06;;;12.55;53.24
4392;BME280;2210;51.938;8.488;2023-05-17T18:16:40;101576.63;;;12.44;53.29
4392;BME280;2210;51.938;8.488;2023-05-17T18:20:43;101573.91;;;12.37;53.14
4392;BME280;2210;51.938;8.488;2023-05-17T18:24:46;101585.38;;;12.34;53.88
4392;BME280;2210;51.938;8.488;2023-05-17T18:28:46;101587.34;;;12.27;55.02
4392;BME280;2210;51.938;8.488;2023-05-17T18:32:46;101592.94;;;12.20;55.54
4392;BME280;2210;51.938;8.488;2023-05-17T18:36:47;101581.94;;;12.07;56.14
4392;BME280;2210;51.938;8.488;2023-05-17T18:40:47;101587.47;;;12.07;55.68
4392;BME280;2210;51.938;8.488;2023-05-17T18:44:47;101590.94;;;11.95;56.10
4392;BME280;2210;51.938;8.488;2023-05-17T18:48:47;101583.09;;;11.86;56.17
4392;BME280;2210;51.938;8.488;2023-05-17T18:52:48;101597.19;;;11.77;56.85
4392;BME280;2210;51.938;8.488;2023-05-17T18:56:51;101604.59;;;11.77;57.24
4392;BME280;2210;51.938;8.488;2023-05-17T19:00:51;101597.38;;;11.69;57.43
4392;BME280;2210;51.938;8.488;2023-05-17T19:04:54;101597.84;;;11.66;58.48
4392;BME280;2210;51.938;8.488;2023-05-17T19:08:55;101611.06;;;11.51;58.88
4392;BME280;2210;51.938;8.488;2023-05-17T19:13:09;101611.09;;;11.37;59.82
4392;BME280;2210;51.938;8.488;2023-05-17T19:17:13;101612.81;;;11.38;60.11
4392;BME280;2210;51.938;8.488;2023-05-17T19:21:19;101614.31;;;11.34;60.92
4392;BME280;2210;51.938;8.488;2023-05-17T19:25:20;101616.84;;;11.29;60.65
4392;BME280;2210;51.938;8.488;2023-05-17T19:29:20;101626.41;;;11.26;60.72
4392;BME280;2210;51.938;8.488;2023-05-17T19:33:27;101625.59;;;11.19;60.77
4392;BME280;2210;51.938;8.488;2023-05-17T19:37:27;101617.72;;;11.09;61.12
4392;BME280;2210;51.938;8.488;2023-05-17T19:41:30;101623.69;;;11.06;60.75
4392;BME280;2210;51.938;8.488;2023-05-17T19:45:37;101633.22;;;11.10;60.85
4392;BME280;2210;51.938;8.488;2023-05-17T19:49:37;101624.34;;;11.02;60.89
4392;BME280;2210;51.938;8.488;2023-05-17T19:53:37;101629.63;;;10.90;61.90
4392;BME280;2210;51.938;8.488;2023-05-17T19:57:37;101632.41;;;10.90;62.32
4392;BME280;2210;51.938;8.488;2023-05-17T20:01:38;101630.69;;;10.89;62.84
4392;BME280;2210;51.938;8.488;2023-05-17T20:05:44;101621.78;;;10.73;63.20
4392;BME280;2210;51.938;8.488;2023-05-17T20:09:44;101629.00;;;10.74;62.36
4392;BME280;2210;51.938;8.488;2023-05-17T20:13:45;101631.56;;;10.83;61.81
4392;BME280;2210;51.938;8.488;2023-05-17T20:17:48;101634.94;;;10.71;62.21
4392;BME280;2210;51.938;8.488;2023-05-17T20:21:49;101639.59;;;10.64;61.96
4392;BME280;2210;51.938;8.488;2023-05-17T20:25:49;101641.91;;;10.60;62.52
4392;BME280;2210;51.938;8.488;2023-05-17T20:29:49;101644.25;;;10.43;63.33
4392;BME280;2210;51.938;8.488;2023-05-17T20:33:50;101652.50;;;10.43;64.14
4392;BME280;2210;51.938;8.488;2023-05-17T20:37:53;101651.38;;;10.31;63.12
4392;BME280;2210;51.938;8.488;2023-05-17T20:41:54;101644.16;;;10.23;64.14
4392;BME280;2210;51.938;8.488;2023-05-17T20:45:54;101652.00;;;10.26;64.72
4392;BME280;2210;51.938;8.488;2023-05-17T20:50:02;101651.75;;;10.15;63.98
4392;BME280;2210;51.938;8.488;2023-05-17T20:54:09;101659.34;;;10.06;65.19
4392;BME280;2210;51.938;8.488;2023-05-17T20:58:09;101650.00;;;10.00;65.28
4392;BME280;2210;51.938;8.488;2023-05-17T21:02:13;101658.91;;;10.02;65.60
4392;BME280;2210;51.938;8.488;2023-05-17T21:06:16;101661.22;;;9.92;66.74
4392;BME280;2210;51.938;8.488;2023-05-17T21:10:16;101661.34;;;9.77;66.85
4392;BME280;2210;51.938;8.488;2023-05-17T21:14:17;101657.97;;;9.82;67.45
4392;BME280;2210;51.938;8.488;2023-05-17T21:18:17;101668.78;;;9.41;67.22
4392;BME280;2210;51.938;8.488;2023-05-17T21:22:20;101663.06;;;9.43;67.96
4392;BME280;2210;51.938;8.488;2023-05-17T21:26:20;101663.28;;;9.41;68.58
4392;BME280;2210;51.938;8.488;2023-05-17T21:30:22;101666.16;;;9.33;67.99
4392;BME280;2210;51.938;8.488;2023-05-17T21:34:23;101667.94;;;9.48;68.33
4392;BME280;2210;51.938;8.488;2023-05-17T21:38:23;101670.34;;;9.29;68.82
4392;BME280;2210;51.938;8.488;2023-05-17T21:42:26;101669.94;;;9.25;68.40
4392;BME280;2210;51.938;8.488;2023-05-17T21:46:26;101683.03;;;9.23;68.83
4392;BME280;2210;51.938;8.488;2023-05-17T21:50:27;101683.91;;;9.24;68.70
4392;BME280;2210;51.938;8.488;2023-05-17T21:54:27;101680.00;;;9.18;69.14
4392;BME280;2210;51.938;8.488;2023-05-17T21:58:28;101687.88;;;8.93;69.26
4392;BME280;2210;51.938;8.488;2023-05-17T22:02:29;101687.97;;;9.06;70.00
4392;BME280;2210;51.938;8.488;2023-05-17T22:06:29;101686.91;;;8.79;70.63